sensor_id;sensor_type;location;lat;lon;timestamp;pressure;altitude;pressure_sealevel;temperature;humidity
21664;BME280;10993;52.510;13.456;2024-02-23T00:01:51;63689.13;;;-146.93;100.00
21664;BME280;10993;52.510;13.456;2024-02-23T00:06:53;63504.47;;;-146.93;100.00
21664;BME280;10993;52.510;13.456;2024-02-23T00:11:53;63236.69;;;-146.93;100.00
21664;BME280;10993;52.510;13.456;2024-02-23T00:16:54;62628.13;;;-146.93;100.00
21664;BME280;10993;52.510;13.456;2024-02-23T00:21:56;61693.22;;;-146.93;100.00
21664;BME280;10993;52.510;13.456;2024-02-23T00:26:56;60880.19;;;-146.93;100.00
21664;BME280;10993;52.510;13.456;2024-02-23T00:31:57;60626.78;;;-146.93;100.00
21664;BME280;10993;52.510;13.456;2024-02-23T00:36:59;60174.75;;;-146.93;100.00
21664;BME280;10993;52.510;13.456;2024-02-23T00:41:59;60055.19;;;-146.93;100.00
21664;BME280;10993;52.510;13.456;2024-02-23T00:46:59;60466.66;;;-146.93;100.00
21664;BME280;10993;52.510;13.456;2024-02-23T00:52:03;60369.34;;;-146.93;100.00
21664;BME280;10993;52.510;13.456;2024-02-23T00:57:04;60606.50;;;-146.93;100.00
21664;BME280;10993;52.510;13.456;2024-02-23T01:02:04;60186.94;;;-146.93;100.00
21664;BME280;10993;52.510;13.456;2024-02-23T01:07:06;59777.53;;;-146.93;100.00
21664;BME280;10993;52.510;13.456;2024-02-23T01:12:07;59737.00;;;-146.93;100.00
21664;BME280;10993;52.510;13.456;2024-02-23T01:17:07;59408.69;;;-146.93;99.76
21664;BME280;10993;52.510;13.456;2024-02-23T01:22:09;58881.88;;;-146.93;98.58
21664;BME280;10993;52.510;13.456;2024-02-23T01:27:09;58638.75;;;-146.93;97.76
21664;BME280;10993;52.510;13.456;2024-02-23T01:32:09;58377.44;;;-146.93;97.44
21664;BME280;10993;52.510;13.456;2024-02-23T01:37:11;58573.94;;;-146.93;97.68
21664;BME280;10993;52.510;13.456;2024-02-23T01:42:11;58207.25;;;-146.93;96.05
21664;BME280;10993;52.510;13.456;2024-02-23T01:47:12;57887.22;;;-146.93;94.01
21664;BME280;10993;52.510;13.456;2024-02-23T01:52:14;57583.41;;;-146.93;91.90
21664;BME280;10993;52.510;13.456;2024-02-23T01:57:15;57289.75;;;-146.93;89.53
21664;BME280;10993;52.510;13.456;2024-02-23T02:02:15;57204.69;;;-146.93;86.85
21664;BME280;10993;52.510;13.456;2024-02-23T02:07:17;57226.97;;;-146.93;85.88
21664;BME280;10993;52.510;13.456;2024-02-23T02:12:26;56937.41;;;-146.93;82.58
21664;BME280;10993;52.510;13.456;2024-02-23T02:17:26;57093.31;;;-146.93;81.16
21664;BME280;10993;52.510;13.456;2024-02-23T02:22:28;56953.59;;;-146.93;76.31
21664;BME280;10993;52.510;13.456;2024-02-23T02:27:28;56840.22;;;-146.93;72.16
21664;BME280;10993;52.510;13.456;2024-02-23T02:32:29;56807.81;;;-146.93;70.38
21664;BME280;10993;52.510;13.456;2024-02-23T02:37:30;56797.69;;;-146.93;66.38
21664;BME280;10993;52.510;13.456;2024-02-23T02:42:31;56783.50;;;-146.93;59.63
21664;BME280;10993;52.510;13.456;2024-02-23T02:47:31;56775.41;;;-146.93;55.20
21664;BME280;10993;52.510;13.456;2024-02-23T02:52:33;56785.53;;;-146.93;54.28
21664;BME280;10993;52.510;13.456;2024-02-23T02:57:33;56763.28;;;-146.93;54.86
21664;BME280;10993;52.510;13.456;2024-02-23T03:02:34;56777.44;;;-146.93;55.81
21664;BME280;10993;52.510;13.456;2024-02-23T03:07:36;56743.03;;;-146.93;55.25
21664;BME280;10993;52.510;13.456;2024-02-23T03:12:36;56601.28;;;-146.93;54.17
21664;BME280;10993;52.510;13.456;2024-02-23T03:17:37;56747.06;;;-146.93;56.74
21664;BME280;10993;52.510;13.456;2024-02-23T03:22:38;56710.63;;;-146.93;54.46
21664;BME280;10993;52.510;13.456;2024-02-23T03:27:39;56734.91;;;-146.93;55.99
21664;BME280;10993;52.510;13.456;2024-02-23T03:32:39;56736.94;;;-146.93;52.33
21664;BME280;10993;52.510;13.456;2024-02-23T03:37:41;56680.25;;;-146.93;52.34
21664;BME280;10993;52.510;13.456;2024-02-23T03:42:41;56734.91;;;-146.93;51.56
21664;BME280;10993;52.510;13.456;2024-02-23T03:47:41;56767.31;;;-146.93;53.64
21664;BME280;10993;52.510;13.456;2024-02-23T03:52:43;56670.13;;;-146.93;51.64
21664;BME280;10993;52.510;13.456;2024-02-23T03:57:43;56718.72;;;-146.93;53.17
21664;BME280;10993;52.510;13.456;2024-02-23T04:02:44;56720.75;;;-146.93;55.32
21664;BME280;10993;52.510;13.456;2024-02-23T04:07:45;56680.25;;;-146.93;53.96
21664;BME280;10993;52.510;13.456;2024-02-23T04:12:46;56706.56;;;-146.93;54.62
21664;BME280;10993;52.510;13.456;2024-02-23T04:17:46;56743.03;;;-146.93;56.12
21664;BME280;10993;52.510;13.456;2024-02-23T04:22:48;56641.78;;;-146.93;56.51
21664;BME280;10993;52.510;13.456;2024-02-23T04:27:48;56686.31;;;-146.93;57.14
21664;BME280;10993;52.510;13.456;2024-02-23T04:32:49;56698.47;;;-146.93;57.94
21664;BME280;10993;52.510;13.456;2024-02-23T04:37:50;56726.81;;;-146.93;56.52
21664;BME280;10993;52.510;13.456;2024-02-23T04:42:51;56694.41;;;-146.93;55.29
21664;BME280;10993;52.510;13.456;2024-02-23T04:47:51;56528.41;;;-146.93;54.72
21664;BME280;10993;52.510;13.456;2024-02-23T04:52:53;56724.78;;;-146.93;55.29
21664;BME280;10993;52.510;13.456;2024-02-23T04:57:53;56716.69;;;-146.93;53.29
21664;BME280;10993;52.510;13.456;2024-02-23T05:02:53;56718.72;;;-146.93;51.65
21664;BME280;10993;52.510;13.456;2024-02-23T05:07:55;56506.13;;;-146.93;52.36
21664;BME280;10993;52.510;13.456;2024-02-23T05:12:55;56694.41;;;-146.93;51.40
21664;BME280;10993;52.510;13.456;2024-02-23T05:17:56;56736.94;;;-146.93;51.44
21664;BME280;10993;52.510;13.456;2024-02-23T05:22:57;56651.91;;;-146.93;51.71
21664;BME280;10993;52.510;13.456;2024-02-23T05:27:58;56627.59;;;-146.93;50.20
21664;BME280;10993;52.510;13.456;2024-02-23T05:32:58;56718.72;;;-146.93;51.69
21664;BME280;10993;52.510;13.456;2024-02-23T05:38:00;56649.88;;;-146.93;53.02
21664;BME280;10993;52.510;13.456;2024-02-23T05:43:00;56692.41;;;-146.93;52.11
21664;BME280;10993;52.510;13.456;2024-02-23T05:48:02;56637.72;;;-146.93;50.20
21664;BME280;10993;52.510;13.456;2024-02-23T05:53:04;56599.25;;;-146.93;50.96
21664;BME280;10993;52.510;13.456;2024-02-23T05:58:04;56694.41;;;-146.93;51.60
21664;BME280;10993;52.510;13.456;2024-02-23T06:03:05;56657.97;;;-146.93;50.83
21664;BME280;10993;52.510;13.456;2024-02-23T06:08:07;56649.88;;;-146.93;50.55
21664;BME280;10993;52.510;13.456;2024-02-23T06:13:20;56682.28;;;-146.93;51.54
21664;BME280;10993;52.510;13.456;2024-02-23T06:18:33;56696.44;;;-146.93;52.52
21664;BME280;10993;52.510;13.456;2024-02-23T06:23:35;56898.94;;;-146.93;50.89
21664;BME280;10993;52.510;13.456;2024-02-23T06:28:36;56670.13;;;-146.93;51.35
21664;BME280;10993;52.510;13.456;2024-02-23T06:39:54;56668.09;;;-146.93;50.47
21664;BME280;10993;52.510;13.456;2024-02-23T06:45:00;56660.00;;;-146.93;50.06
21664;BME280;10993;52.510;13.456;2024-02-23T06:50:15;56678.22;;;-146.93;48.86
21664;BME280;10993;52.510;13.456;2024-02-23T06:55:24;56706.56;;;-146.93;47.48
21664;BME280;10993;52.510;13.456;2024-02-23T07:00:31;56698.47;;;-146.93;46.41
21664;BME280;10993;52.510;13.456;2024-02-23T07:05:35;56540.53;;;-146.93;45.91
21664;BME280;10993;52.510;13.456;2024-02-23T07:10:38;56686.31;;;-146.93;45.95
21664;BME280;10993;52.510;13.456;2024-02-23T07:15:40;56724.78;;;-146.93;45.40
21664;BME280;10993;52.510;13.456;2024-02-23T07:20:44;56690.38;;;-146.93;44.95
21664;BME280;10993;52.510;13.456;2024-02-23T07:25:47;56653.94;;;-146.93;45.85
21664;BME280;10993;52.510;13.456;2024-02-23T07:31:05;56743.03;;;-146.93;45.90
21664;BME280;10993;52.510;13.456;2024-02-23T07:36:15;56726.81;;;-146.93;45.08
21664;BME280;10993;52.510;13.456;2024-02-23T07:41:22;56694.41;;;-146.93;44.95
21664;BME280;10993;52.510;13.456;2024-02-23T07:46:25;56726.81;;;-146.93;45.94
21664;BME280;10993;52.510;13.456;2024-02-23T07:51:29;56716.69;;;-146.93;45.50
21664;BME280;10993;52.510;13.456;2024-02-23T07:56:35;56720.75;;;-146.93;45.94
21664;BME280;10993;52.510;13.456;2024-02-23T08:01:37;56708.59;;;-146.93;44.31
21664;BME280;10993;52.510;13.456;2024-02-23T08:06:43;56728.84;;;-146.93;43.28
21664;BME280;10993;52.510;13.456;2024-02-23T08:12:00;56979.94;;;-146.93;38.81
21664;BME280;10993;52.510;13.456;2024-02-23T08:22:41;57318.09;;;-146.93;32.00
21664;BME280;10993;52.510;13.456;2024-02-23T08:27:47;57214.84;;;-146.93;32.03
21664;BME280;10993;52.510;13.456;2024-02-23T08:33:05;57166.22;;;-146.93;33.08
21664;BME280;10993;52.510;13.456;2024-02-23T08:38:27;57067.00;;;-146.93;35.42
21664;BME280;10993;52.510;13.456;2024-02-23T10:12:42;57405.19;;;-146.93;29.88
21664;BME280;10993;52.510;13.456;2024-02-23T10:17:52;57553.03;;;-146.93;29.54
21664;BME280;10993;52.510;13.456;2024-02-23T10:22:55;57156.09;;;-146.93;31.26
21664;BME280;10993;52.510;13.456;2024-02-23T10:28:11;57139.91;;;-146.93;32.53
21664;BME280;10993;52.510;13.456;2024-02-23T10:33:19;57259.38;;;-146.93;31.13
21664;BME280;10993;52.510;13.456;2024-02-23T10:38:24;57413.28;;;-146.93;29.41
21664;BME280;10993;52.510;13.456;2024-02-23T10:43:33;57328.25;;;-146.93;30.41
21664;BME280;10993;52.510;13.456;2024-02-23T10:48:45;57342.41;;;-146.93;28.93
21664;BME280;10993;52.510;13.456;2024-02-23T10:53:48;57188.50;;;-146.93;29.35
21664;BME280;10993;52.510;13.456;2024-02-23T10:58:52;57389.00;;;-146.93;29.47
21664;BME280;10993;52.510;13.456;2024-02-23T11:03:54;57472.03;;;-146.93;28.95
21664;BME280;10993;52.510;13.456;2024-02-23T11:09:13;57546.97;;;-146.93;27.59
21664;BME280;10993;52.510;13.456;2024-02-23T11:14:29;57490.25;;;-146.93;28.04
21664;BME280;10993;52.510;13.456;2024-02-23T11:19:34;57715.06;;;-146.93;27.65
21664;BME280;10993;52.510;13.456;2024-02-23T11:24:43;57690.75;;;-146.93;26.76
21664;BME280;10993;52.510;13.456;2024-02-23T11:29:59;57484.19;;;-146.93;28.40
21664;BME280;10993;52.510;13.456;2024-02-23T11:35:02;57401.16;;;-146.93;27.88
21664;BME280;10993;52.510;13.456;2024-02-23T11:40:06;57123.69;;;-146.93;28.62
21664;BME280;10993;52.510;13.456;2024-02-23T11:45:13;57237.09;;;-146.93;28.77
21664;BME280;10993;52.510;13.456;2024-02-23T11:50:15;57224.97;;;-146.93;28.93
21664;BME280;10993;52.510;13.456;2024-02-23T11:55:19;57111.56;;;-146.93;29.56
21664;BME280;10993;52.510;13.456;2024-02-23T12:00:25;57067.00;;;-146.93;30.23
21664;BME280;10993;52.510;13.456;2024-02-23T12:05:26;57064.97;;;-146.93;30.73
21664;BME280;10993;52.510;13.456;2024-02-23T12:10:28;57111.56;;;-146.93;29.79
21664;BME280;10993;52.510;13.456;2024-02-23T12:15:31;57077.13;;;-146.93;30.90
21664;BME280;10993;52.510;13.456;2024-02-23T12:20:33;57036.63;;;-146.93;30.52
21664;BME280;10993;52.510;13.456;2024-02-23T12:25:35;57028.53;;;-146.93;31.58
21664;BME280;10993;52.510;13.456;2024-02-23T12:30:40;57002.19;;;-146.93;31.80
21664;BME280;10993;52.510;13.456;2024-02-23T12:35:44;57044.72;;;-146.93;31.30
21664;BME280;10993;52.510;13.456;2024-02-23T12:40:46;56992.06;;;-146.93;33.00
21664;BME280;10993;52.510;13.456;2024-02-23T12:45:55;56868.56;;;-146.93;32.89
21664;BME280;10993;52.510;13.456;2024-02-23T12:51:00;56852.34;;;-146.93;34.12
21664;BME280;10993;52.510;13.456;2024-02-23T12:56:07;56815.91;;;-146.93;33.19
21664;BME280;10993;52.510;13.456;2024-02-23T13:25:38;56682.28;;;-146.93;35.27
21664;BME280;10993;52.510;13.456;2024-02-23T13:31:02;56657.97;;;-146.93;35.89
21664;BME280;10993;52.510;13.456;2024-02-23T13:36:06;56761.25;;;-146.93;36.41
21664;BME280;10993;52.510;13.456;2024-02-23T13:53:09;56718.72;;;-146.93;36.68
21664;BME280;10993;52.510;13.456;2024-02-23T13:58:15;56637.72;;;-146.93;36.75
21664;BME280;10993;52.510;13.456;2024-02-23T14:03:17;56787.56;;;-146.93;37.39
21664;BME280;10993;52.510;13.456;2024-02-23T14:08:20;56657.97;;;-146.93;37.95
21664;BME280;10993;52.510;13.456;2024-02-23T14:13:24;56682.28;;;-146.93;38.06
21664;BME280;10993;52.510;13.456;2024-02-23T14:18:27;56649.88;;;-146.93;38.49
21664;BME280;10993;52.510;13.456;2024-02-23T14:23:30;56662.03;;;-146.93;38.47
21664;BME280;10993;52.510;13.456;2024-02-23T14:28:36;56670.13;;;-146.93;38.54
21664;BME280;10993;52.510;13.456;2024-02-23T14:34:21;56651.91;;;-146.93;38.83
21664;BME280;10993;52.510;13.456;2024-02-23T14:39:27;56645.81;;;-146.93;38.24
21664;BME280;10993;52.510;13.456;2024-02-23T14:50:46;56609.38;;;-146.93;37.84
21664;BME280;10993;52.510;13.456;2024-02-23T14:56:18;56631.66;;;-146.93;38.34
21664;BME280;10993;52.510;13.456;2024-02-23T15:01:28;56655.94;;;-146.93;38.95
21664;BME280;10993;52.510;13.456;2024-02-23T15:06:55;56649.88;;;-146.93;39.25
21664;BME280;10993;52.510;13.456;2024-02-23T15:12:14;56668.09;;;-146.93;38.67
21664;BME280;10993;52.510;13.456;2024-02-23T15:17:18;56639.75;;;-146.93;38.98
21664;BME280;10993;52.510;13.456;2024-02-23T15:28:20;56613.44;;;-146.93;39.60
21664;BME280;10993;52.510;13.456;2024-02-23T15:33:27;56645.81;;;-146.93;40.78
21664;BME280;10993;52.510;13.456;2024-02-23T15:38:43;56574.97;;;-146.93;40.88
21664;BME280;10993;52.510;13.456;2024-02-23T16:08:02;56603.31;;;-146.93;44.27
21664;BME280;10993;52.510;13.456;2024-02-23T16:13:07;56609.38;;;-146.93;45.01
21664;BME280;10993;52.510;13.456;2024-02-23T16:18:11;56635.72;;;-146.93;46.05
21664;BME280;10993;52.510;13.456;2024-02-23T16:23:20;56597.25;;;-146.93;46.12
21664;BME280;10993;52.510;13.456;2024-02-23T16:28:28;56621.53;;;-146.93;48.62
21664;BME280;10993;52.510;13.456;2024-02-23T16:33:33;56579.00;;;-146.93;45.74
21664;BME280;10993;52.510;13.456;2024-02-23T16:38:42;56591.16;;;-146.93;46.31
21664;BME280;10993;52.510;13.456;2024-02-23T16:43:45;56589.13;;;-146.93;47.08
21664;BME280;10993;52.510;13.456;2024-02-23T17:13:17;56585.09;;;-146.93;48.78
21664;BME280;10993;52.510;13.456;2024-02-23T17:43:26;56581.03;;;-146.93;52.03
21664;BME280;10993;52.510;13.456;2024-02-23T17:48:32;56615.47;;;-146.93;52.22
21664;BME280;10993;52.510;13.456;2024-02-23T17:53:41;56653.94;;;-146.93;52.45
21664;BME280;10993;52.510;13.456;2024-02-23T17:58:47;56556.75;;;-146.93;52.59
21664;BME280;10993;52.510;13.456;2024-02-23T18:09:43;56615.47;;;-146.93;53.49
21664;BME280;10993;52.510;13.456;2024-02-23T18:15:11;56601.28;;;-146.93;53.57
21664;BME280;10993;52.510;13.456;2024-02-23T18:20:18;56556.75;;;-146.93;55.27
21664;BME280;10993;52.510;13.456;2024-02-23T18:25:23;56577.00;;;-146.93;55.09
21664;BME280;10993;52.510;13.456;2024-02-23T18:30:28;56743.03;;;-146.93;55.97
21664;BME280;10993;52.510;13.456;2024-02-23T18:35:31;56649.88;;;-146.93;56.45
21664;BME280;10993;52.510;13.456;2024-02-23T18:40:37;56508.16;;;-146.93;57.42
21664;BME280;10993;52.510;13.456;2024-02-23T18:45:53;56595.22;;;-146.93;56.66
21664;BME280;10993;52.510;13.456;2024-02-23T18:51:17;57310.00;;;-146.93;58.02
21664;BME280;10993;52.510;13.456;2024-02-23T18:56:22;56591.16;;;-146.93;58.67
21664;BME280;10993;52.510;13.456;2024-02-23T19:01:58;56613.44;;;-146.93;59.72
21664;BME280;10993;52.510;13.456;2024-02-23T19:07:37;56577.00;;;-146.93;59.81
21664;BME280;10993;52.510;13.456;2024-02-23T19:12:38;56613.44;;;-146.93;60.21
21664;BME280;10993;52.510;13.456;2024-02-23T19:17:41;56572.94;;;-146.93;60.91
21664;BME280;10993;52.510;13.456;2024-02-23T19:22:41;56601.28;;;-146.93;60.48
21664;BME280;10993;52.510;13.456;2024-02-23T19:27:42;56599.25;;;-146.93;60.03
21664;BME280;10993;52.510;13.456;2024-02-23T19:32:43;56619.50;;;-146.93;61.36
21664;BME280;10993;52.510;13.456;2024-02-23T19:37:44;56607.34;;;-146.93;62.96
21664;BME280;10993;52.510;13.456;2024-02-23T21:18:23;56520.28;;;-146.93;70.07
21664;BME280;10993;52.510;13.456;2024-02-23T21:29:58;56637.72;;;-146.93;69.28
21664;BME280;10993;52.510;13.456;2024-02-23T21:41:35;56572.94;;;-146.93;72.34
21664;BME280;10993;52.510;13.456;2024-02-23T21:47:10;56556.75;;;-146.93;69.84
21664;BME280;10993;52.510;13.456;2024-02-23T21:52:20;56623.56;;;-146.93;71.19
21664;BME280;10993;52.510;13.456;2024-02-23T21:57:27;56615.47;;;-146.93;71.69
21664;BME280;10993;52.510;13.456;2024-02-23T22:02:28;56655.94;;;-146.93;72.49
21664;BME280;10993;52.510;13.456;2024-02-23T22:07:29;56617.47;;;-146.93;72.45
21664;BME280;10993;52.510;13.456;2024-02-23T22:12:31;56670.13;;;-146.93;73.69
21664;BME280;10993;52.510;13.456;2024-02-23T22:17:31;56552.69;;;-146.93;72.09
21664;BME280;10993;52.510;13.456;2024-02-23T22:22:31;56615.47;;;-146.93;72.26
21664;BME280;10993;52.510;13.456;2024-02-23T22:27:33;56686.31;;;-146.93;73.37
21664;BME280;10993;52.510;13.456;2024-02-23T22:32:35;56637.72;;;-146.93;74.49
21664;BME280;10993;52.510;13.456;2024-02-23T22:37:35;56579.00;;;-146.93;72.64
21664;BME280;10993;52.510;13.456;2024-02-23T22:42:37;56688.34;;;-146.93;72.53
21664;BME280;10993;52.510;13.456;2024-02-23T22:47:37;56601.28;;;-146.93;71.51
21664;BME280;10993;52.510;13.456;2024-02-23T22:52:37;56556.75;;;-146.93;72.02
21664;BME280;10993;52.510;13.456;2024-02-23T22:57:39;56613.44;;;-146.93;73.03
21664;BME280;10993;52.510;13.456;2024-02-23T23:02:40;56641.78;;;-146.93;73.83
21664;BME280;10993;52.510;13.456;2024-02-23T23:07:40;56585.09;;;-146.93;75.26
21664;BME280;10993;52.510;13.456;2024-02-23T23:12:42;56884.75;;;-146.93;75.74
21664;BME280;10993;52.510;13.456;2024-02-23T23:17:42;56700.50;;;-146.93;76.52
21664;BME280;10993;52.510;13.456;2024-02-23T23:22:43;56635.72;;;-146.93;77.07
21664;BME280;10993;52.510;13.456;2024-02-23T23:27:45;56696.44;;;-146.93;77.59
21664;BME280;10993;52.510;13.456;2024-02-23T23:32:45;56690.38;;;-146.93;78.61
21664;BME280;10993;52.510;13.456;2024-02-23T23:37:45;56651.91;;;-146.93;79.59
21664;BME280;10993;52.510;13.456;2024-02-23T23:42:47;56694.41;;;-146.93;78.60
21664;BME280;10993;52.510;13.456;2024-02-23T23:47:47;56706.56;;;-146.93;79.85
21664;BME280;10993;52.510;13.456;2024-02-23T23:52:48;56635.72;;;-146.93;80.01
21664;BME280;10993;52.510;13.456;2024-02-23T23:57:49;56736.94;;;-146.93;80.44
